首页
METAR-TAF:

METAR-TAF

机场 :

馬丁尼克-亞米-凱薩國際機場

法兰西堡, 馬提尼克

纬度: 14-36N, 经度: 061-00W, 海拔: 5米

当前天气观测

该预报发布于17分钟前的18:00 UTC
风速9节,风向西转西北
温度 30°C
湿度 70%
气压 1014 hPa
能见度10公里或以上

METAR: TFFF 151800Z AUTO 29009KT 9999 SCT025/// BKN032/// OVC038/// ///TCU 30/24 Q1014 TEMPO 1000 SHRA SCT015CB

时间: 14:17 (18:17 UTC)

预报

该预报发布于22分钟前的17:55 UTC
预报有效从15日的 18点(UTC)到 16日的 18点(UTC)
风速8节,风向东转东南
能见度10公里或以上
散云层高于3000英尺
短暂存在
从 15日的 18点(UTC)到 16日的 12点(UTC)
能見度: 4000
散云层高于1800英尺, 塔状积云.
阵雨
几率 30% :
短暂存在
从 15日的 18点(UTC)到 16日的 02点(UTC)
风速10节,风向多变
能見度: 1000
散云层高于1500英尺, 积雨云.
阵雨

TAF: TFFF 151755Z 1518/1618 11008KT 9999 SCT030 TEMPO 1518/1612 4000 SHRA SCT018TCU PROB30 TEMPO 1518/1602 VRB10KT 1000 SHRA SCT015CB

超过4000个机场的气象观测和天气预报(METAR&TAF报告)。

可查询的气象台以黄色和红色小点在地图上表示。

将鼠标移到小点上方,可查看气象台名称。

然后点击查看天气观测和预报。

如需切换地图:点击带黑十字的绿色按钮放大地图;点击带横线的绿色按钮缩小地图;或者点击绿色箭头查看邻近地区的地图。


METAR-TAF: